sensor_id;sensor_type;location;lat;lon;timestamp;pressure;altitude;pressure_sealevel;temperature
29423;BMP180;16399;51.686;8.684;2022-12-29T00:01:51;98668.00;;;10.90
29423;BMP180;16399;51.686;8.684;2022-12-29T00:04:54;98664.00;;;10.90
29423;BMP180;16399;51.686;8.684;2022-12-29T00:07:56;98659.00;;;10.90
29423;BMP180;16399;51.686;8.684;2022-12-29T00:10:58;98668.00;;;11.00
29423;BMP180;16399;51.686;8.684;2022-12-29T00:14:00;98656.00;;;11.00
29423;BMP180;16399;51.686;8.684;2022-12-29T00:17:20;98661.00;;;11.00
29423;BMP180;16399;51.686;8.684;2022-12-29T00:20:23;98662.00;;;11.00
29423;BMP180;16399;51.686;8.684;2022-12-29T00:23:43;98655.00;;;11.10
29423;BMP180;16399;51.686;8.684;2022-12-29T00:30:26;98650.00;;;11.10
29423;BMP180;16399;51.686;8.684;2022-12-29T00:33:46;98648.00;;;11.10
29423;BMP180;16399;51.686;8.684;2022-12-29T00:37:07;98643.00;;;11.20
29423;BMP180;16399;51.686;8.684;2022-12-29T00:40:09;98654.00;;;11.20
29423;BMP180;16399;51.686;8.684;2022-12-29T00:43:30;98636.00;;;11.20
29423;BMP180;16399;51.686;8.684;2022-12-29T00:46:50;98639.00;;;11.30
29423;BMP180;16399;51.686;8.684;2022-12-29T00:49:52;98630.00;;;11.30
29423;BMP180;16399;51.686;8.684;2022-12-29T00:52:54;98629.00;;;11.30
29423;BMP180;16399;51.686;8.684;2022-12-29T00:55:57;98631.00;;;11.40
29423;BMP180;16399;51.686;8.684;2022-12-29T00:59:04;98628.00;;;11.40
29423;BMP180;16399;51.686;8.684;2022-12-29T01:02:08;98620.00;;;11.40
29423;BMP180;16399;51.686;8.684;2022-12-29T01:05:10;98623.00;;;11.40
29423;BMP180;16399;51.686;8.684;2022-12-29T01:08:12;98621.00;;;11.50
29423;BMP180;16399;51.686;8.684;2022-12-29T01:11:15;98626.00;;;11.50
29423;BMP180;16399;51.686;8.684;2022-12-29T01:14:18;98605.00;;;11.50
29423;BMP180;16399;51.686;8.684;2022-12-29T01:17:20;98601.00;;;11.50
29423;BMP180;16399;51.686;8.684;2022-12-29T01:20:23;98591.00;;;11.50
29423;BMP180;16399;51.686;8.684;2022-12-29T01:23:25;98592.00;;;11.50
29423;BMP180;16399;51.686;8.684;2022-12-29T01:26:27;98581.00;;;11.50
29423;BMP180;16399;51.686;8.684;2022-12-29T01:29:30;98573.00;;;11.50
29423;BMP180;16399;51.686;8.684;2022-12-29T01:32:32;98577.00;;;11.60
29423;BMP180;16399;51.686;8.684;2022-12-29T01:35:34;98567.00;;;11.60
29423;BMP180;16399;51.686;8.684;2022-12-29T01:38:38;98568.00;;;11.60
29423;BMP180;16399;51.686;8.684;2022-12-29T01:41:40;98573.00;;;11.60
29423;BMP180;16399;51.686;8.684;2022-12-29T01:44:58;98560.00;;;11.60
29423;BMP180;16399;51.686;8.684;2022-12-29T01:48:02;98548.00;;;11.70
29423;BMP180;16399;51.686;8.684;2022-12-29T01:51:06;98555.00;;;11.70
29423;BMP180;16399;51.686;8.684;2022-12-29T01:54:19;98554.00;;;11.70
29423;BMP180;16399;51.686;8.684;2022-12-29T01:57:25;98554.00;;;11.70
29423;BMP180;16399;51.686;8.684;2022-12-29T02:00:25;98553.00;;;11.80
29423;BMP180;16399;51.686;8.684;2022-12-29T02:03:27;98557.00;;;11.80
29423;BMP180;16399;51.686;8.684;2022-12-29T02:06:45;98554.00;;;11.90
29423;BMP180;16399;51.686;8.684;2022-12-29T02:09:49;98548.00;;;11.90
29423;BMP180;16399;51.686;8.684;2022-12-29T02:12:53;98555.00;;;11.90
29423;BMP180;16399;51.686;8.684;2022-12-29T02:16:19;98551.00;;;12.00
29423;BMP180;16399;51.686;8.684;2022-12-29T02:22:32;98543.00;;;12.00
29423;BMP180;16399;51.686;8.684;2022-12-29T02:32:38;98559.00;;;12.00
29423;BMP180;16399;51.686;8.684;2022-12-29T02:36:01;98560.00;;;12.00
29423;BMP180;16399;51.686;8.684;2022-12-29T02:39:16;98547.00;;;12.00
29423;BMP180;16399;51.686;8.684;2022-12-29T02:42:31;98543.00;;;11.90
29423;BMP180;16399;51.686;8.684;2022-12-29T02:45:45;98553.00;;;11.90
29423;BMP180;16399;51.686;8.684;2022-12-29T02:49:08;98537.00;;;11.80
29423;BMP180;16399;51.686;8.684;2022-12-29T02:52:15;98544.00;;;11.80
29423;BMP180;16399;51.686;8.684;2022-12-29T02:55:17;98539.00;;;11.80
29423;BMP180;16399;51.686;8.684;2022-12-29T02:58:23;98551.00;;;11.80
29423;BMP180;16399;51.686;8.684;2022-12-29T03:01:40;98529.00;;;11.80
29423;BMP180;16399;51.686;8.684;2022-12-29T03:08:23;98521.00;;;11.80
29423;BMP180;16399;51.686;8.684;2022-12-29T03:11:27;98519.00;;;11.80
29423;BMP180;16399;51.686;8.684;2022-12-29T03:15:07;98511.00;;;11.90
29423;BMP180;16399;51.686;8.684;2022-12-29T03:21:37;98495.00;;;11.90
29423;BMP180;16399;51.686;8.684;2022-12-29T03:25:13;98488.00;;;11.90
29423;BMP180;16399;51.686;8.684;2022-12-29T03:28:18;98483.00;;;12.00
29423;BMP180;16399;51.686;8.684;2022-12-29T03:31:22;98484.00;;;12.00
29423;BMP180;16399;51.686;8.684;2022-12-29T03:34:25;98492.00;;;11.90
29423;BMP180;16399;51.686;8.684;2022-12-29T03:37:40;98490.00;;;11.90
29423;BMP180;16399;51.686;8.684;2022-12-29T03:40:46;98494.00;;;11.90
29423;BMP180;16399;51.686;8.684;2022-12-29T03:43:48;98489.00;;;11.90
29423;BMP180;16399;51.686;8.684;2022-12-29T03:46:50;98477.00;;;12.00
29423;BMP180;16399;51.686;8.684;2022-12-29T03:49:53;98482.00;;;12.00
29423;BMP180;16399;51.686;8.684;2022-12-29T03:52:56;98470.00;;;12.00
29423;BMP180;16399;51.686;8.684;2022-12-29T03:55:58;98467.00;;;12.10
29423;BMP180;16399;51.686;8.684;2022-12-29T03:59:00;98460.00;;;12.10
29423;BMP180;16399;51.686;8.684;2022-12-29T04:02:03;98466.00;;;12.10
29423;BMP180;16399;51.686;8.684;2022-12-29T04:05:06;98462.00;;;12.20
29423;BMP180;16399;51.686;8.684;2022-12-29T04:08:08;98460.00;;;12.10
29423;BMP180;16399;51.686;8.684;2022-12-29T04:11:10;98464.00;;;12.20
29423;BMP180;16399;51.686;8.684;2022-12-29T04:14:13;98465.00;;;12.20
29423;BMP180;16399;51.686;8.684;2022-12-29T04:17:15;98459.00;;;12.20
29423;BMP180;16399;51.686;8.684;2022-12-29T04:20:17;98463.00;;;12.20
29423;BMP180;16399;51.686;8.684;2022-12-29T04:23:38;98460.00;;;12.20
29423;BMP180;16399;51.686;8.684;2022-12-29T04:26:41;98457.00;;;12.20
29423;BMP180;16399;51.686;8.684;2022-12-29T04:29:43;98455.00;;;12.20
29423;BMP180;16399;51.686;8.684;2022-12-29T04:32:45;98464.00;;;12.20
29423;BMP180;16399;51.686;8.684;2022-12-29T04:35:48;98453.00;;;12.20
29423;BMP180;16399;51.686;8.684;2022-12-29T04:38:51;98449.00;;;12.20
29423;BMP180;16399;51.686;8.684;2022-12-29T04:41:53;98447.00;;;12.20
29423;BMP180;16399;51.686;8.684;2022-12-29T04:44:55;98446.00;;;12.10
29423;BMP180;16399;51.686;8.684;2022-12-29T04:47:57;98435.00;;;12.10
29423;BMP180;16399;51.686;8.684;2022-12-29T04:51:00;98448.00;;;12.10
29423;BMP180;16399;51.686;8.684;2022-12-29T04:54:02;98443.00;;;12.10
29423;BMP180;16399;51.686;8.684;2022-12-29T04:57:04;98443.00;;;12.10
29423;BMP180;16399;51.686;8.684;2022-12-29T05:00:08;98446.00;;;12.10
29423;BMP180;16399;51.686;8.684;2022-12-29T05:03:10;98448.00;;;12.10
29423;BMP180;16399;51.686;8.684;2022-12-29T05:06:12;98448.00;;;12.10
29423;BMP180;16399;51.686;8.684;2022-12-29T05:09:15;98450.00;;;12.10
29423;BMP180;16399;51.686;8.684;2022-12-29T05:12:17;98438.00;;;12.10
29423;BMP180;16399;51.686;8.684;2022-12-29T05:15:19;98435.00;;;12.10
29423;BMP180;16399;51.686;8.684;2022-12-29T05:18:22;98434.00;;;12.00
29423;BMP180;16399;51.686;8.684;2022-12-29T05:21:24;98429.00;;;12.00
29423;BMP180;16399;51.686;8.684;2022-12-29T05:24:27;98435.00;;;11.90
29423;BMP180;16399;51.686;8.684;2022-12-29T05:27:29;98433.00;;;11.90
29423;BMP180;16399;51.686;8.684;2022-12-29T05:30:31;98425.00;;;11.80
29423;BMP180;16399;51.686;8.684;2022-12-29T05:33:33;98410.00;;;11.80
29423;BMP180;16399;51.686;8.684;2022-12-29T05:36:36;98427.00;;;11.70
29423;BMP180;16399;51.686;8.684;2022-12-29T05:39:38;98431.00;;;11.70
29423;BMP180;16399;51.686;8.684;2022-12-29T05:42:40;98440.00;;;11.70
29423;BMP180;16399;51.686;8.684;2022-12-29T05:45:43;98421.00;;;11.80
29423;BMP180;16399;51.686;8.684;2022-12-29T05:48:45;98419.00;;;11.80
29423;BMP180;16399;51.686;8.684;2022-12-29T05:51:47;98414.00;;;11.90
29423;BMP180;16399;51.686;8.684;2022-12-29T05:54:50;98423.00;;;11.90
29423;BMP180;16399;51.686;8.684;2022-12-29T05:57:52;98409.00;;;12.00
29423;BMP180;16399;51.686;8.684;2022-12-29T06:00:54;98401.00;;;12.00
29423;BMP180;16399;51.686;8.684;2022-12-29T06:03:57;98418.00;;;12.10
29423;BMP180;16399;51.686;8.684;2022-12-29T06:06:59;98415.00;;;12.10
29423;BMP180;16399;51.686;8.684;2022-12-29T06:10:01;98421.00;;;12.20
29423;BMP180;16399;51.686;8.684;2022-12-29T06:13:03;98407.00;;;12.20
29423;BMP180;16399;51.686;8.684;2022-12-29T06:16:07;98425.00;;;12.20
29423;BMP180;16399;51.686;8.684;2022-12-29T06:19:09;98431.00;;;12.10
29423;BMP180;16399;51.686;8.684;2022-12-29T06:22:11;98436.00;;;12.20
29423;BMP180;16399;51.686;8.684;2022-12-29T06:25:14;98432.00;;;12.20
29423;BMP180;16399;51.686;8.684;2022-12-29T06:28:17;98428.00;;;12.20
29423;BMP180;16399;51.686;8.684;2022-12-29T06:31:19;98431.00;;;12.30
29423;BMP180;16399;51.686;8.684;2022-12-29T06:34:21;98433.00;;;12.30
29423;BMP180;16399;51.686;8.684;2022-12-29T06:37:24;98447.00;;;12.30
29423;BMP180;16399;51.686;8.684;2022-12-29T06:40:26;98433.00;;;12.30
29423;BMP180;16399;51.686;8.684;2022-12-29T06:43:28;98434.00;;;12.40
29423;BMP180;16399;51.686;8.684;2022-12-29T06:46:31;98456.00;;;12.30
29423;BMP180;16399;51.686;8.684;2022-12-29T06:49:34;98452.00;;;12.30
29423;BMP180;16399;51.686;8.684;2022-12-29T06:52:36;98460.00;;;12.30
29423;BMP180;16399;51.686;8.684;2022-12-29T06:55:38;98457.00;;;12.30
29423;BMP180;16399;51.686;8.684;2022-12-29T06:58:41;98454.00;;;12.30
29423;BMP180;16399;51.686;8.684;2022-12-29T07:01:43;98457.00;;;12.20
29423;BMP180;16399;51.686;8.684;2022-12-29T07:04:45;98452.00;;;12.20
29423;BMP180;16399;51.686;8.684;2022-12-29T07:07:47;98463.00;;;12.20
29423;BMP180;16399;51.686;8.684;2022-12-29T07:10:50;98460.00;;;12.20
29423;BMP180;16399;51.686;8.684;2022-12-29T07:13:52;98470.00;;;12.20
29423;BMP180;16399;51.686;8.684;2022-12-29T07:16:54;98459.00;;;12.20
29423;BMP180;16399;51.686;8.684;2022-12-29T07:19:57;98451.00;;;12.10
29423;BMP180;16399;51.686;8.684;2022-12-29T07:22:59;98466.00;;;12.00
29423;BMP180;16399;51.686;8.684;2022-12-29T07:26:02;98470.00;;;11.90
29423;BMP180;16399;51.686;8.684;2022-12-29T07:29:05;98474.00;;;11.90
29423;BMP180;16399;51.686;8.684;2022-12-29T07:32:07;98488.00;;;11.90
29423;BMP180;16399;51.686;8.684;2022-12-29T07:35:10;98497.00;;;11.90
29423;BMP180;16399;51.686;8.684;2022-12-29T07:38:12;98495.00;;;11.90
29423;BMP180;16399;51.686;8.684;2022-12-29T07:41:14;98498.00;;;11.90
29423;BMP180;16399;51.686;8.684;2022-12-29T07:44:17;98508.00;;;12.00
29423;BMP180;16399;51.686;8.684;2022-12-29T07:47:19;98503.00;;;12.00
29423;BMP180;16399;51.686;8.684;2022-12-29T07:50:21;98503.00;;;12.00
29423;BMP180;16399;51.686;8.684;2022-12-29T07:53:24;98503.00;;;12.00
29423;BMP180;16399;51.686;8.684;2022-12-29T07:56:26;98511.00;;;12.00
29423;BMP180;16399;51.686;8.684;2022-12-29T07:59:28;98519.00;;;12.00
29423;BMP180;16399;51.686;8.684;2022-12-29T08:02:31;98538.00;;;11.90
29423;BMP180;16399;51.686;8.684;2022-12-29T08:05:34;98552.00;;;11.90
29423;BMP180;16399;51.686;8.684;2022-12-29T08:08:36;98554.00;;;11.90
29423;BMP180;16399;51.686;8.684;2022-12-29T08:11:39;98557.00;;;11.70
29423;BMP180;16399;51.686;8.684;2022-12-29T08:14:41;98571.00;;;11.70
29423;BMP180;16399;51.686;8.684;2022-12-29T08:17:43;98559.00;;;11.50
29423;BMP180;16399;51.686;8.684;2022-12-29T08:20:46;98569.00;;;11.30
29423;BMP180;16399;51.686;8.684;2022-12-29T08:23:48;98573.00;;;11.20
29423;BMP180;16399;51.686;8.684;2022-12-29T08:26:50;98558.00;;;11.10
29423;BMP180;16399;51.686;8.684;2022-12-29T08:29:53;98569.00;;;11.10
29423;BMP180;16399;51.686;8.684;2022-12-29T08:32:55;98586.00;;;10.90
29423;BMP180;16399;51.686;8.684;2022-12-29T08:36:02;98584.00;;;10.80
29423;BMP180;16399;51.686;8.684;2022-12-29T08:39:05;98587.00;;;10.60
29423;BMP180;16399;51.686;8.684;2022-12-29T08:42:07;98600.00;;;10.60
29423;BMP180;16399;51.686;8.684;2022-12-29T08:45:10;98595.00;;;10.60
29423;BMP180;16399;51.686;8.684;2022-12-29T08:48:12;98597.00;;;10.60
29423;BMP180;16399;51.686;8.684;2022-12-29T08:51:14;98590.00;;;10.60
29423;BMP180;16399;51.686;8.684;2022-12-29T08:54:18;98594.00;;;10.60
29423;BMP180;16399;51.686;8.684;2022-12-29T08:57:20;98608.00;;;10.60
29423;BMP180;16399;51.686;8.684;2022-12-29T09:00:22;98602.00;;;10.60
29423;BMP180;16399;51.686;8.684;2022-12-29T09:03:25;98597.00;;;10.50
29423;BMP180;16399;51.686;8.684;2022-12-29T09:06:28;98587.00;;;10.50
29423;BMP180;16399;51.686;8.684;2022-12-29T09:09:30;98590.00;;;10.50
29423;BMP180;16399;51.686;8.684;2022-12-29T09:12:32;98594.00;;;10.50
29423;BMP180;16399;51.686;8.684;2022-12-29T09:15:34;98593.00;;;10.50
29423;BMP180;16399;51.686;8.684;2022-12-29T09:18:37;98596.00;;;10.50
29423;BMP180;16399;51.686;8.684;2022-12-29T09:21:40;98597.00;;;10.60
29423;BMP180;16399;51.686;8.684;2022-12-29T09:24:42;98598.00;;;10.60
29423;BMP180;16399;51.686;8.684;2022-12-29T09:27:45;98614.00;;;10.60
29423;BMP180;16399;51.686;8.684;2022-12-29T09:30:49;98617.00;;;10.60
29423;BMP180;16399;51.686;8.684;2022-12-29T09:33:52;98619.00;;;10.60
29423;BMP180;16399;51.686;8.684;2022-12-29T09:36:54;98617.00;;;10.70
29423;BMP180;16399;51.686;8.684;2022-12-29T09:39:57;98612.00;;;10.90
29423;BMP180;16399;51.686;8.684;2022-12-29T09:46:23;98620.00;;;11.10
29423;BMP180;16399;51.686;8.684;2022-12-29T09:49:38;98607.00;;;11.20
29423;BMP180;16399;51.686;8.684;2022-12-29T09:52:42;98611.00;;;11.20
29423;BMP180;16399;51.686;8.684;2022-12-29T09:55:52;98608.00;;;11.20
29423;BMP180;16399;51.686;8.684;2022-12-29T09:59:04;98599.00;;;11.20
29423;BMP180;16399;51.686;8.684;2022-12-29T10:02:16;98599.00;;;11.20
29423;BMP180;16399;51.686;8.684;2022-12-29T10:11:51;98618.00;;;11.50
29423;BMP180;16399;51.686;8.684;2022-12-29T10:14:58;98610.00;;;11.60
29423;BMP180;16399;51.686;8.684;2022-12-29T10:18:16;98627.00;;;11.70
29423;BMP180;16399;51.686;8.684;2022-12-29T10:24:34;98619.00;;;11.50
29423;BMP180;16399;51.686;8.684;2022-12-29T10:27:38;98654.00;;;11.30
29423;BMP180;16399;51.686;8.684;2022-12-29T10:30:41;98669.00;;;11.20
29423;BMP180;16399;51.686;8.684;2022-12-29T10:33:44;98676.00;;;10.90
29423;BMP180;16399;51.686;8.684;2022-12-29T10:36:49;98672.00;;;10.60
29423;BMP180;16399;51.686;8.684;2022-12-29T10:39:53;98651.00;;;10.40
29423;BMP180;16399;51.686;8.684;2022-12-29T10:42:57;98662.00;;;10.20
29423;BMP180;16399;51.686;8.684;2022-12-29T10:46:05;98658.00;;;10.10
29423;BMP180;16399;51.686;8.684;2022-12-29T10:49:14;98654.00;;;9.90
29423;BMP180;16399;51.686;8.684;2022-12-29T10:52:16;98643.00;;;9.80
29423;BMP180;16399;51.686;8.684;2022-12-29T10:55:25;98648.00;;;9.80
29423;BMP180;16399;51.686;8.684;2022-12-29T10:58:29;98650.00;;;9.90
29423;BMP180;16399;51.686;8.684;2022-12-29T11:01:37;98645.00;;;10.00
29423;BMP180;16399;51.686;8.684;2022-12-29T11:04:46;98643.00;;;10.10
29423;BMP180;16399;51.686;8.684;2022-12-29T11:07:51;98636.00;;;10.20
29423;BMP180;16399;51.686;8.684;2022-12-29T11:11:03;98629.00;;;10.50
29423;BMP180;16399;51.686;8.684;2022-12-29T11:14:19;98642.00;;;10.70
29423;BMP180;16399;51.686;8.684;2022-12-29T11:17:21;98625.00;;;10.90
29423;BMP180;16399;51.686;8.684;2022-12-29T11:20:40;98631.00;;;11.10
29423;BMP180;16399;51.686;8.684;2022-12-29T11:23:40;98628.00;;;11.30
29423;BMP180;16399;51.686;8.684;2022-12-29T11:26:44;98644.00;;;11.60
29423;BMP180;16399;51.686;8.684;2022-12-29T11:29:46;98631.00;;;11.80
29423;BMP180;16399;51.686;8.684;2022-12-29T11:32:54;98632.00;;;11.90
29423;BMP180;16399;51.686;8.684;2022-12-29T11:36:10;98634.00;;;11.80
29423;BMP180;16399;51.686;8.684;2022-12-29T11:39:21;98631.00;;;11.90
29423;BMP180;16399;51.686;8.684;2022-12-29T11:42:18;98644.00;;;11.90
29423;BMP180;16399;51.686;8.684;2022-12-29T11:45:26;98643.00;;;11.90
29423;BMP180;16399;51.686;8.684;2022-12-29T11:48:40;98646.00;;;11.90
29423;BMP180;16399;51.686;8.684;2022-12-29T11:51:48;98661.00;;;11.80
29423;BMP180;16399;51.686;8.684;2022-12-29T11:54:53;98650.00;;;11.70
29423;BMP180;16399;51.686;8.684;2022-12-29T11:57:58;98661.00;;;11.70
29423;BMP180;16399;51.686;8.684;2022-12-29T12:01:20;98659.00;;;11.70
29423;BMP180;16399;51.686;8.684;2022-12-29T12:04:30;98650.00;;;11.70
29423;BMP180;16399;51.686;8.684;2022-12-29T12:07:41;98648.00;;;11.70
29423;BMP180;16399;51.686;8.684;2022-12-29T12:10:58;98658.00;;;11.60
29423;BMP180;16399;51.686;8.684;2022-12-29T12:14:12;98660.00;;;11.60
29423;BMP180;16399;51.686;8.684;2022-12-29T12:17:12;98669.00;;;11.60
29423;BMP180;16399;51.686;8.684;2022-12-29T12:20:21;98652.00;;;11.70
29423;BMP180;16399;51.686;8.684;2022-12-29T12:26:39;98674.00;;;11.60
29423;BMP180;16399;51.686;8.684;2022-12-29T12:29:43;98659.00;;;11.60
29423;BMP180;16399;51.686;8.684;2022-12-29T12:32:53;98668.00;;;11.50
29423;BMP180;16399;51.686;8.684;2022-12-29T12:36:19;98665.00;;;11.50
29423;BMP180;16399;51.686;8.684;2022-12-29T12:40:01;98680.00;;;11.50
29423;BMP180;16399;51.686;8.684;2022-12-29T12:43:23;98674.00;;;11.50
29423;BMP180;16399;51.686;8.684;2022-12-29T12:46:42;98680.00;;;11.50
29423;BMP180;16399;51.686;8.684;2022-12-29T12:56:31;98690.00;;;11.50
29423;BMP180;16399;51.686;8.684;2022-12-29T12:59:42;98688.00;;;11.50
29423;BMP180;16399;51.686;8.684;2022-12-29T13:03:04;98699.00;;;11.50
29423;BMP180;16399;51.686;8.684;2022-12-29T13:06:26;98707.00;;;11.50
29423;BMP180;16399;51.686;8.684;2022-12-29T13:12:52;98722.00;;;11.50
29423;BMP180;16399;51.686;8.684;2022-12-29T13:15:57;98722.00;;;11.40
29423;BMP180;16399;51.686;8.684;2022-12-29T13:22:20;98726.00;;;11.40
29423;BMP180;16399;51.686;8.684;2022-12-29T13:25:37;98737.00;;;11.40
29423;BMP180;16399;51.686;8.684;2022-12-29T13:28:54;98738.00;;;11.40
29423;BMP180;16399;51.686;8.684;2022-12-29T13:35:46;98747.00;;;11.30
29423;BMP180;16399;51.686;8.684;2022-12-29T13:38:48;98763.00;;;11.30
29423;BMP180;16399;51.686;8.684;2022-12-29T13:41:54;98762.00;;;11.30
29423;BMP180;16399;51.686;8.684;2022-12-29T13:45:00;98762.00;;;11.30
29423;BMP180;16399;51.686;8.684;2022-12-29T13:48:21;98771.00;;;11.20
29423;BMP180;16399;51.686;8.684;2022-12-29T13:51:23;98781.00;;;11.20
29423;BMP180;16399;51.686;8.684;2022-12-29T13:54:30;98781.00;;;11.20
29423;BMP180;16399;51.686;8.684;2022-12-29T13:57:52;98785.00;;;11.10
29423;BMP180;16399;51.686;8.684;2022-12-29T14:04:28;98793.00;;;11.10
29423;BMP180;16399;51.686;8.684;2022-12-29T14:07:28;98794.00;;;11.10
29423;BMP180;16399;51.686;8.684;2022-12-29T14:10:37;98801.00;;;11.10
29423;BMP180;16399;51.686;8.684;2022-12-29T14:13:42;98809.00;;;11.00
29423;BMP180;16399;51.686;8.684;2022-12-29T14:16:45;98804.00;;;10.90
29423;BMP180;16399;51.686;8.684;2022-12-29T14:19:51;98808.00;;;10.80
29423;BMP180;16399;51.686;8.684;2022-12-29T14:23:01;98819.00;;;10.80
29423;BMP180;16399;51.686;8.684;2022-12-29T14:26:15;98826.00;;;10.70
29423;BMP180;16399;51.686;8.684;2022-12-29T14:35:44;98828.00;;;10.60
29423;BMP180;16399;51.686;8.684;2022-12-29T14:38:48;98843.00;;;10.60
29423;BMP180;16399;51.686;8.684;2022-12-29T14:42:11;98832.00;;;10.60
29423;BMP180;16399;51.686;8.684;2022-12-29T14:48:31;98826.00;;;10.50
29423;BMP180;16399;51.686;8.684;2022-12-29T14:51:35;98827.00;;;10.50
29423;BMP180;16399;51.686;8.684;2022-12-29T14:54:44;98819.00;;;10.50
29423;BMP180;16399;51.686;8.684;2022-12-29T14:57:51;98814.00;;;10.50
29423;BMP180;16399;51.686;8.684;2022-12-29T15:00:55;98820.00;;;10.40
29423;BMP180;16399;51.686;8.684;2022-12-29T15:04:00;98824.00;;;10.40
29423;BMP180;16399;51.686;8.684;2022-12-29T15:07:06;98817.00;;;10.40
29423;BMP180;16399;51.686;8.684;2022-12-29T15:10:13;98825.00;;;10.50
29423;BMP180;16399;51.686;8.684;2022-12-29T15:13:23;98828.00;;;10.50
29423;BMP180;16399;51.686;8.684;2022-12-29T15:16:29;98833.00;;;10.50
29423;BMP180;16399;51.686;8.684;2022-12-29T15:19:29;98842.00;;;10.50
29423;BMP180;16399;51.686;8.684;2022-12-29T15:22:32;98844.00;;;10.50
29423;BMP180;16399;51.686;8.684;2022-12-29T15:25:35;98846.00;;;10.50
29423;BMP180;16399;51.686;8.684;2022-12-29T15:28:44;98841.00;;;10.50
29423;BMP180;16399;51.686;8.684;2022-12-29T15:31:47;98831.00;;;10.50
29423;BMP180;16399;51.686;8.684;2022-12-29T15:34:56;98850.00;;;10.50
29423;BMP180;16399;51.686;8.684;2022-12-29T15:37:55;98853.00;;;10.50
29423;BMP180;16399;51.686;8.684;2022-12-29T15:41:24;98866.00;;;10.50
29423;BMP180;16399;51.686;8.684;2022-12-29T15:44:16;98864.00;;;10.60
29423;BMP180;16399;51.686;8.684;2022-12-29T15:47:24;98859.00;;;10.60
29423;BMP180;16399;51.686;8.684;2022-12-29T15:50:33;98860.00;;;10.60
29423;BMP180;16399;51.686;8.684;2022-12-29T15:53:32;98863.00;;;10.60
29423;BMP180;16399;51.686;8.684;2022-12-29T15:56:35;98874.00;;;10.60
29423;BMP180;16399;51.686;8.684;2022-12-29T15:59:44;98862.00;;;10.60
29423;BMP180;16399;51.686;8.684;2022-12-29T16:02:42;98862.00;;;10.60
29423;BMP180;16399;51.686;8.684;2022-12-29T16:06:05;98874.00;;;10.60
29423;BMP180;16399;51.686;8.684;2022-12-29T16:09:15;98873.00;;;10.60
29423;BMP180;16399;51.686;8.684;2022-12-29T16:12:20;98866.00;;;10.60
29423;BMP180;16399;51.686;8.684;2022-12-29T16:15:23;98878.00;;;10.60
29423;BMP180;16399;51.686;8.684;2022-12-29T16:18:30;98888.00;;;10.60
29423;BMP180;16399;51.686;8.684;2022-12-29T16:21:34;98884.00;;;10.60
29423;BMP180;16399;51.686;8.684;2022-12-29T16:24:37;98887.00;;;10.60
29423;BMP180;16399;51.686;8.684;2022-12-29T16:27:41;98890.00;;;10.60
29423;BMP180;16399;51.686;8.684;2022-12-29T16:30:44;98897.00;;;10.60
29423;BMP180;16399;51.686;8.684;2022-12-29T16:33:56;98899.00;;;10.60
29423;BMP180;16399;51.686;8.684;2022-12-29T16:40:30;98889.00;;;10.60
29423;BMP180;16399;51.686;8.684;2022-12-29T16:43:36;98896.00;;;10.60
29423;BMP180;16399;51.686;8.684;2022-12-29T16:47:03;98894.00;;;10.60
29423;BMP180;16399;51.686;8.684;2022-12-29T16:50:17;98893.00;;;10.60
29423;BMP180;16399;51.686;8.684;2022-12-29T16:53:27;98893.00;;;10.60
29423;BMP180;16399;51.686;8.684;2022-12-29T16:56:36;98887.00;;;10.60
29423;BMP180;16399;51.686;8.684;2022-12-29T16:59:40;98892.00;;;10.60
29423;BMP180;16399;51.686;8.684;2022-12-29T17:02:48;98900.00;;;10.60
29423;BMP180;16399;51.686;8.684;2022-12-29T17:05:50;98907.00;;;10.60
29423;BMP180;16399;51.686;8.684;2022-12-29T17:08:53;98898.00;;;10.60
29423;BMP180;16399;51.686;8.684;2022-12-29T17:11:58;98908.00;;;10.60
29423;BMP180;16399;51.686;8.684;2022-12-29T17:15:03;98910.00;;;10.60
29423;BMP180;16399;51.686;8.684;2022-12-29T17:18:10;98909.00;;;10.60
29423;BMP180;16399;51.686;8.684;2022-12-29T17:21:13;98915.00;;;10.60
29423;BMP180;16399;51.686;8.684;2022-12-29T17:24:17;98920.00;;;10.60
29423;BMP180;16399;51.686;8.684;2022-12-29T17:27:22;98919.00;;;10.60
29423;BMP180;16399;51.686;8.684;2022-12-29T17:30:26;98927.00;;;10.50
29423;BMP180;16399;51.686;8.684;2022-12-29T17:33:35;98940.00;;;10.50
29423;BMP180;16399;51.686;8.684;2022-12-29T17:36:34;98927.00;;;10.50
29423;BMP180;16399;51.686;8.684;2022-12-29T17:39:37;98932.00;;;10.50
29423;BMP180;16399;51.686;8.684;2022-12-29T17:42:42;98926.00;;;10.40
29423;BMP180;16399;51.686;8.684;2022-12-29T17:45:48;98934.00;;;10.40
29423;BMP180;16399;51.686;8.684;2022-12-29T17:48:50;98933.00;;;10.30
29423;BMP180;16399;51.686;8.684;2022-12-29T17:51:52;98929.00;;;10.20
29423;BMP180;16399;51.686;8.684;2022-12-29T17:54:54;98932.00;;;10.10
29423;BMP180;16399;51.686;8.684;2022-12-29T17:57:57;98949.00;;;10.10
29423;BMP180;16399;51.686;8.684;2022-12-29T18:01:01;98959.00;;;10.10
29423;BMP180;16399;51.686;8.684;2022-12-29T18:04:03;98964.00;;;10.10
29423;BMP180;16399;51.686;8.684;2022-12-29T18:07:09;98960.00;;;10.00
29423;BMP180;16399;51.686;8.684;2022-12-29T18:10:12;98968.00;;;10.10
29423;BMP180;16399;51.686;8.684;2022-12-29T18:13:23;98967.00;;;10.10
29423;BMP180;16399;51.686;8.684;2022-12-29T18:16:26;98969.00;;;10.10
29423;BMP180;16399;51.686;8.684;2022-12-29T18:19:28;98968.00;;;10.10
29423;BMP180;16399;51.686;8.684;2022-12-29T18:22:30;98968.00;;;10.10
29423;BMP180;16399;51.686;8.684;2022-12-29T18:25:45;98968.00;;;10.10
29423;BMP180;16399;51.686;8.684;2022-12-29T18:28:44;98973.00;;;10.10
29423;BMP180;16399;51.686;8.684;2022-12-29T18:31:48;98975.00;;;10.10
29423;BMP180;16399;51.686;8.684;2022-12-29T18:34:50;98973.00;;;10.10
29423;BMP180;16399;51.686;8.684;2022-12-29T18:37:53;98976.00;;;10.10
29423;BMP180;16399;51.686;8.684;2022-12-29T18:40:56;98985.00;;;10.10
29423;BMP180;16399;51.686;8.684;2022-12-29T18:43:59;98978.00;;;10.10
29423;BMP180;16399;51.686;8.684;2022-12-29T18:47:01;98977.00;;;10.10
29423;BMP180;16399;51.686;8.684;2022-12-29T18:50:03;98987.00;;;10.10
29423;BMP180;16399;51.686;8.684;2022-12-29T18:53:08;98983.00;;;10.10
29423;BMP180;16399;51.686;8.684;2022-12-29T18:56:10;98984.00;;;10.10
29423;BMP180;16399;51.686;8.684;2022-12-29T18:59:12;98984.00;;;10.00
29423;BMP180;16399;51.686;8.684;2022-12-29T19:02:17;98977.00;;;10.00